Time;durP1;ratioP1;P1;durP2;ratioP2;P2;SDS_P1;SDS_P2;PMS_P1;PMS_P2;Temp;Humidity;BMP_temperature;BMP_pressure;BME280_temperature;BME280_humidity;BME280_pressure;Samples;Min_cycle;Max_cycle;Signal;HPM_P1;HPM_P2
2021/12/06 00:01:15;;;;;;;10.13;2.37;;;2.50;99.90;;;;;;4421976;32;20129;-68
2021/12/06 00:03:47;;;;;;;1.10;1.05;;;2.40;99.90;;;;;;4413658;32;20074;-68
2021/12/06 00:06:15;;;;;;;3.22;1.70;;;2.40;99.90;;;;;;4415160;32;20065;-67
2021/12/06 00:08:41;;;;;;;2.40;2.10;;;2.40;99.90;;;;;;4414013;32;20616;-66
2021/12/06 00:11:08;;;;;;;6.53;3.05;;;2.40;99.90;;;;;;4414681;32;20082;-68
2021/12/06 00:13:36;;;;;;;2.75;1.90;;;2.40;99.90;;;;;;4415123;32;20302;-66
2021/12/06 00:16:07;;;;;;;2.20;1.75;;;2.50;99.90;;;;;;4427947;32;20061;-68
2021/12/06 00:18:34;;;;;;;4.12;2.33;;;2.40;99.90;;;;;;4429152;32;20075;-67
2021/12/06 00:21:00;;;;;;;6.68;2.92;;;2.40;99.90;;;;;;4430791;32;20066;-68
2021/12/06 00:23:27;;;;;;;3.62;1.85;;;2.40;99.90;;;;;;4430510;32;20120;-67
2021/12/06 00:25:53;;;;;;;4.37;2.90;;;2.40;99.90;;;;;;4424468;32;20053;-67
2021/12/06 00:28:19;;;;;;;1.37;1.05;;;2.40;99.90;;;;;;4430690;32;20184;-68
2021/12/06 00:30:44;;;;;;;1.75;1.00;;;2.40;99.90;;;;;;4428058;32;20381;-67
2021/12/06 00:33:10;;;;;;;2.95;1.92;;;2.40;99.90;;;;;;4418487;32;20081;-66
2021/12/06 00:35:36;;;;;;;2.22;2.03;;;2.50;99.90;;;;;;4417131;32;20062;-67
2021/12/06 00:38:01;;;;;;;1.80;1.67;;;2.40;99.90;;;;;;4427330;32;20106;-67
2021/12/06 00:40:38;;;;;;;4.28;2.87;;;2.40;99.90;;;;;;4430086;32;20074;-68
2021/12/06 00:43:05;;;;;;;1.58;1.48;;;2.40;99.90;;;;;;4430000;32;20069;-67
2021/12/06 00:45:30;;;;;;;1.25;1.17;;;2.40;99.90;;;;;;4422546;32;20085;-67
2021/12/06 00:47:57;;;;;;;1.50;1.40;;;2.40;99.90;;;;;;4414925;32;20158;-67
2021/12/06 00:50:28;;;;;;;1.55;1.45;;;2.40;99.90;;;;;;4417150;32;20140;-67
2021/12/06 00:52:55;;;;;;;3.10;2.03;;;2.40;99.90;;;;;;4419968;32;20072;-67
2021/12/06 00:55:21;;;;;;;1.23;1.17;;;2.40;99.90;;;;;;4422785;32;20482;-67
2021/12/06 00:57:49;;;;;;;6.50;2.65;;;2.40;99.90;;;;;;4425942;32;20486;-67
2021/12/06 01:00:21;;;;;;;1.25;1.25;;;2.40;99.90;;;;;;4425229;32;20061;-67
2021/12/06 01:02:47;;;;;;;4.87;2.78;;;2.40;99.90;;;;;;4414204;32;20117;-67
2021/12/06 01:05:13;;;;;;;0.85;0.85;;;2.40;99.90;;;;;;4418367;32;20121;-68
2021/12/06 01:07:39;;;;;;;2.53;2.00;;;2.40;99.90;;;;;;4416732;32;20071;-67
2021/12/06 01:10:07;;;;;;;3.00;2.15;;;2.40;99.90;;;;;;4415904;32;20436;-67
2021/12/06 01:12:33;;;;;;;2.47;2.28;;;2.40;99.90;;;;;;4425587;32;20076;-67
2021/12/06 01:14:58;;;;;;;1.40;1.30;;;2.40;99.90;;;;;;4428843;32;20077;-67
2021/12/06 01:17:25;;;;;;;4.45;3.28;;;2.40;99.90;;;;;;4418293;32;20057;-67
2021/12/06 01:19:51;;;;;;;3.80;2.55;;;2.40;99.90;;;;;;4417720;32;20120;-67
2021/12/06 01:22:24;;;;;;;5.78;2.40;;;2.40;99.90;;;;;;4426925;32;20108;-67
2021/12/06 01:24:58;;;;;;;1.55;1.37;;;2.30;99.90;;;;;;4424311;32;20086;-67
2021/12/06 01:27:38;;;;;;;4.90;3.33;;;2.30;99.90;;;;;;4417484;32;20066;-67
2021/12/06 01:34:09;;;;;;;1.67;1.58;;;2.30;99.90;;;;;;4404257;32;20638;-67
2021/12/06 01:39:26;;;;;;;2.17;1.65;;;2.30;99.90;;;;;;4414913;32;20066;-67
2021/12/06 01:41:08;;;;;;;3.10;2.75;;;2.20;99.90;;;;;;4404396;32;20069;-67
2021/12/06 01:43:34;;;;;;;2.65;1.67;;;2.30;99.90;;;;;;4427039;32;20423;-67
2021/12/06 01:46:00;;;;;;;1.17;0.98;;;2.40;99.90;;;;;;4416758;32;20079;-67
2021/12/06 01:48:25;;;;;;;1.10;1.10;;;2.30;99.90;;;;;;4417091;32;20074;-68
2021/12/06 01:50:51;;;;;;;2.62;2.00;;;2.40;99.90;;;;;;4414569;32;20081;-67
2021/12/06 01:53:17;;;;;;;8.07;2.62;;;2.40;99.90;;;;;;4414771;32;20467;-67
2021/12/06 01:55:42;;;;;;;2.75;2.08;;;2.40;99.90;;;;;;4419906;32;20058;-68
2021/12/06 01:58:08;;;;;;;4.75;1.65;;;2.40;99.90;;;;;;4430304;32;20061;-67
2021/12/06 02:00:44;;;;;;;0.98;0.98;;;2.50;99.90;;;;;;4429065;32;20620;-67
2021/12/06 02:03:09;;;;;;;4.07;2.08;;;2.50;99.90;;;;;;4425226;32;20077;-66
2021/12/06 02:05:36;;;;;;;1.55;1.45;;;2.30;99.90;;;;;;4420818;32;20526;-67
2021/12/06 02:08:02;;;;;;;7.60;2.45;;;2.30;99.90;;;;;;4428421;32;20070;-67
2021/12/06 02:10:28;;;;;;;3.50;1.30;;;2.40;99.90;;;;;;4423366;32;20061;-67
2021/12/06 02:12:55;;;;;;;24.00;1.77;;;2.40;99.90;;;;;;4426895;32;20122;-67
2021/12/06 02:18:03;;;;;;;0.62;0.62;;;2.40;99.90;;;;;;4426754;32;20560;-67
2021/12/06 02:20:30;;;;;;;12.13;3.08;;;2.40;99.90;;;;;;4418460;32;20101;-67
2021/12/06 02:22:57;;;;;;;7.12;2.25;;;2.40;99.90;;;;;;4422801;32;20432;-67
2021/12/06 02:25:23;;;;;;;0.90;0.85;;;2.40;99.90;;;;;;4419980;32;20094;-67
2021/12/06 02:27:51;;;;;;;9.00;1.73;;;2.40;99.90;;;;;;4426985;32;20492;-67
2021/12/06 02:30:19;;;;;;;1.15;1.12;;;2.30;99.90;;;;;;4428159;32;20090;-67
2021/12/06 02:32:46;;;;;;;1.27;1.02;;;2.20;99.90;;;;;;4415972;32;20115;-67
2021/12/06 02:35:17;;;;;;;1.85;0.88;;;2.10;99.90;;;;;;4424390;32;20057;-67
2021/12/06 02:37:42;;;;;;;1.12;0.95;;;2.20;99.90;;;;;;4411327;32;20058;-68
2021/12/06 02:40:13;;;;;;;1.48;1.02;;;2.30;99.90;;;;;;4427506;32;20065;-67
2021/12/06 02:42:39;;;;;;;0.93;0.93;;;2.20;99.90;;;;;;4425221;32;20131;-67
2021/12/06 02:45:08;;;;;;;1.40;1.30;;;2.10;99.90;;;;;;4418167;32;20057;-67
2021/12/06 02:47:33;;;;;;;4.15;2.08;;;2.10;99.90;;;;;;4424367;32;20313;-67
2021/12/06 02:50:05;;;;;;;3.33;1.35;;;2.00;99.90;;;;;;4427993;32;20049;-67
2021/12/06 02:52:31;;;;;;;0.80;0.80;;;1.90;99.90;;;;;;4417255;32;20053;-67
2021/12/06 02:54:58;;;;;;;1.40;1.30;;;1.90;99.90;;;;;;4423784;32;20616;-67
2021/12/06 02:57:34;;;;;;;1.48;1.23;;;1.90;99.90;;;;;;4424616;32;20050;-67
2021/12/06 02:59:59;;;;;;;1.75;1.45;;;1.80;99.90;;;;;;4415592;32;20070;-67
2021/12/06 03:02:26;;;;;;;1.30;1.25;;;1.80;99.90;;;;;;4414276;32;20530;-67
2021/12/06 03:04:52;;;;;;;2.22;1.05;;;1.80;99.90;;;;;;4413690;32;20128;-67
2021/12/06 03:07:21;;;;;;;0.73;0.73;;;1.90;99.90;;;;;;4416625;32;20422;-67
2021/12/06 03:09:51;;;;;;;1.10;1.10;;;1.80;99.90;;;;;;4419649;32;20074;-67
2021/12/06 03:12:21;;;;;;;1.17;1.08;;;1.70;99.90;;;;;;4425527;32;20529;-67
2021/12/06 03:14:49;;;;;;;;;;;1.80;99.90;;;;;;4423304;32;20061;-67
2021/12/06 03:17:17;;;;;;;0.95;0.95;;;1.70;99.90;;;;;;4422194;32;19966;-67
2021/12/06 03:19:43;;;;;;;0.40;0.40;;;1.80;99.90;;;;;;4412802;32;20058;-67
2021/12/06 03:22:12;;;;;;;0.90;0.77;;;1.70;99.90;;;;;;4421792;32;20423;-68
2021/12/06 03:24:37;;;;;;;2.75;1.52;;;1.70;99.90;;;;;;4421105;32;20077;-67
2021/12/06 03:27:04;;;;;;;1.00;1.00;;;1.70;99.90;;;;;;4419355;32;20132;-67
2021/12/06 03:29:30;;;;;;;4.90;3.08;;;1.60;99.90;;;;;;4412891;32;20120;-67
2021/12/06 03:31:56;;;;;;;1.85;1.73;;;1.60;99.90;;;;;;4416543;32;20082;-67
2021/12/06 03:34:26;;;;;;;5.60;1.75;;;1.60;99.90;;;;;;4421685;32;20459;-67
2021/12/06 03:36:53;;;;;;;0.90;0.90;;;1.60;99.90;;;;;;4418374;32;20530;-67
2021/12/06 03:39:23;;;;;;;1.27;1.17;;;1.60;99.90;;;;;;4419430;32;20128;-68
2021/12/06 03:41:53;;;;;;;6.10;3.42;;;1.70;99.90;;;;;;4419011;32;20058;-67
2021/12/06 03:44:20;;;;;;;1.67;1.58;;;1.70;99.90;;;;;;4414053;32;20065;-67
2021/12/06 03:46:49;;;;;;;0.95;0.95;;;1.60;99.90;;;;;;4419969;32;20049;-67
2021/12/06 03:49:16;;;;;;;5.87;2.10;;;1.70;99.90;;;;;;4430655;32;20513;-66
2021/12/06 03:51:43;;;;;;;1.50;1.35;;;1.70;99.90;;;;;;4426665;32;20164;-67
2021/12/06 03:54:11;;;;;;;1.52;1.42;;;1.70;99.90;;;;;;4422851;32;20533;-67
2021/12/06 03:56:40;;;;;;;0.98;0.98;;;1.70;99.90;;;;;;4428745;32;20077;-67
2021/12/06 03:59:05;;;;;;;0.93;0.93;;;1.70;99.90;;;;;;4429894;32;20146;-67
2021/12/06 04:01:32;;;;;;;4.95;1.62;;;1.70;99.90;;;;;;4420010;32;20086;-67
2021/12/06 04:03:59;;;;;;;0.95;0.95;;;1.70;99.90;;;;;;4418174;32;20146;-67
2021/12/06 04:06:24;;;;;;;8.13;2.15;;;1.90;99.90;;;;;;4425364;32;20077;-67
2021/12/06 04:08:50;;;;;;;2.35;2.03;;;1.80;99.90;;;;;;4430819;32;20062;-66
2021/12/06 04:11:16;;;;;;;4.50;2.10;;;1.80;99.90;;;;;;4425528;32;20521;-67
2021/12/06 04:13:41;;;;;;;11.38;2.72;;;1.70;99.90;;;;;;4420371;32;20169;-67
2021/12/06 04:16:07;;;;;;;1.27;1.10;;;1.80;99.90;;;;;;4422474;32;20176;-67
2021/12/06 04:18:33;;;;;;;0.70;0.70;;;1.80;99.90;;;;;;4415862;32;20120;-67
2021/12/06 04:20:58;;;;;;;2.42;1.85;;;1.80;99.90;;;;;;4422969;32;20112;-67
2021/12/06 04:23:25;;;;;;;1.62;1.50;;;1.80;99.90;;;;;;4426429;32;20057;-67
2021/12/06 04:25:50;;;;;;;1.70;1.30;;;1.80;99.90;;;;;;4418531;32;20509;-67
2021/12/06 04:28:19;;;;;;;2.03;1.73;;;1.80;99.90;;;;;;4419374;32;20090;-67
2021/12/06 04:30:48;;;;;;;1.52;1.42;;;1.90;99.90;;;;;;4429261;32;20113;-67
2021/12/06 04:33:13;;;;;;;2.58;1.73;;;1.90;99.90;;;;;;4413937;32;114033;-67
2021/12/06 04:35:39;;;;;;;2.00;1.77;;;1.80;99.90;;;;;;4421069;32;20089;-67
2021/12/06 04:38:07;;;;;;;7.03;3.05;;;1.90;99.90;;;;;;4425158;32;20109;-67
2021/12/06 04:40:32;;;;;;;3.17;2.15;;;1.80;99.90;;;;;;4419547;32;20080;-68
2021/12/06 04:42:59;;;;;;;2.62;1.77;;;1.80;99.90;;;;;;4424157;32;20102;-67
2021/12/06 04:45:25;;;;;;;2.25;1.12;;;1.70;99.90;;;;;;4428505;32;20651;-67
2021/12/06 04:47:50;;;;;;;1.00;1.00;;;1.80;99.90;;;;;;4418334;32;20054;-68
2021/12/06 04:50:18;;;;;;;0.95;0.95;;;1.70;99.90;;;;;;4428988;32;20077;-67
2021/12/06 04:52:44;;;;;;;1.62;1.52;;;1.80;99.90;;;;;;4428240;32;20069;-68
2021/12/06 04:55:21;;;;;;;1.95;1.80;;;1.80;99.90;;;;;;4416876;32;20089;-67
2021/12/06 04:57:47;;;;;;;1.62;1.52;;;1.80;99.90;;;;;;4426671;32;20082;-67
2021/12/06 05:00:22;;;;;;;1.45;1.35;;;1.70;99.90;;;;;;4418994;32;20085;-67
2021/12/06 05:02:49;;;;;;;2.53;1.30;;;1.70;99.90;;;;;;4425384;32;20065;-67
2021/12/06 05:05:19;;;;;;;1.83;1.62;;;1.70;99.90;;;;;;4414928;32;20066;-67
2021/12/06 05:07:50;;;;;;;1.77;1.52;;;1.80;99.90;;;;;;4415269;32;20074;-68
2021/12/06 05:10:16;;;;;;;2.17;1.98;;;1.80;99.90;;;;;;4415243;32;20087;-66
2021/12/06 05:12:42;;;;;;;1.40;1.30;;;1.90;99.90;;;;;;4419397;32;20082;-67
2021/12/06 05:15:09;;;;;;;1.20;1.12;;;1.90;99.90;;;;;;4424831;32;20132;-67
2021/12/06 05:17:35;;;;;;;1.98;1.58;;;2.00;99.90;;;;;;4428396;32;20505;-68
2021/12/06 05:20:01;;;;;;;2.37;1.17;;;1.90;99.90;;;;;;4430188;32;20092;-67
2021/12/06 05:22:28;;;;;;;6.95;1.98;;;1.80;99.90;;;;;;4418238;32;20061;-67
2021/12/06 05:24:54;;;;;;;2.15;1.95;;;1.90;99.90;;;;;;4406194;32;20513;-68
2021/12/06 05:27:26;;;;;;;1.55;1.45;;;1.90;99.90;;;;;;4414858;32;20077;-67
2021/12/06 05:29:57;;;;;;;2.45;2.25;;;1.90;99.90;;;;;;4428665;32;20517;-67
2021/12/06 05:32:25;;;;;;;7.43;2.30;;;1.90;99.90;;;;;;4419512;32;20070;-67
2021/12/06 05:34:57;;;;;;;3.37;2.58;;;1.90;99.90;;;;;;4414198;32;20119;-66
2021/12/06 05:37:23;;;;;;;0.82;0.82;;;1.90;99.90;;;;;;4419022;32;20530;-67
2021/12/06 05:39:49;;;;;;;1.40;1.30;;;1.90;99.90;;;;;;4426216;32;20068;-66
2021/12/06 05:42:15;;;;;;;1.25;1.23;;;1.90;99.90;;;;;;4422080;32;20061;-68
2021/12/06 05:44:41;;;;;;;1.17;1.12;;;1.90;99.90;;;;;;4419905;32;20073;-67
2021/12/06 05:47:07;;;;;;;1.92;1.42;;;1.90;99.90;;;;;;4418841;32;20062;-67
2021/12/06 05:49:33;;;;;;;2.42;2.10;;;1.90;99.90;;;;;;4422736;32;20587;-67
2021/12/06 05:51:58;;;;;;;3.92;2.03;;;2.00;99.90;;;;;;4424424;32;20073;-67
2021/12/06 05:54:25;;;;;;;2.22;1.60;;;1.90;99.90;;;;;;4415098;32;20466;-67
2021/12/06 05:56:51;;;;;;;5.82;1.87;;;1.90;99.90;;;;;;4422433;32;20075;-67
2021/12/06 05:59:17;;;;;;;1.87;1.67;;;1.90;99.90;;;;;;4425208;32;20131;-67
2021/12/06 06:01:45;;;;;;;1.17;1.15;;;2.00;99.90;;;;;;4419433;32;20073;-67
2021/12/06 06:04:11;;;;;;;1.50;1.40;;;1.90;99.90;;;;;;4418795;32;20085;-67
2021/12/06 06:06:37;;;;;;;1.35;1.25;;;1.80;99.90;;;;;;4419884;32;20065;-67
2021/12/06 06:09:05;;;;;;;1.85;1.65;;;1.80;99.90;;;;;;4424847;32;20081;-68
2021/12/06 06:11:34;;;;;;;2.28;1.52;;;1.80;99.90;;;;;;4425274;32;20475;-68
2021/12/06 06:14:02;;;;;;;1.58;1.15;;;1.90;99.90;;;;;;4423772;32;20065;-68
2021/12/06 06:16:31;;;;;;;3.60;2.00;;;2.00;99.90;;;;;;4417766;32;20070;-67
2021/12/06 06:18:57;;;;;;;0.95;0.95;;;2.00;99.90;;;;;;4410779;32;20094;-67
2021/12/06 06:21:24;;;;;;;2.30;1.30;;;1.90;99.90;;;;;;4421315;32;20059;-68
2021/12/06 06:23:52;;;;;;;1.75;1.48;;;2.00;99.90;;;;;;4415996;32;20572;-68
2021/12/06 06:26:18;;;;;;;4.53;1.58;;;1.90;99.90;;;;;;4405777;32;20069;-67
2021/12/06 06:28:45;;;;;;;1.20;1.20;;;1.90;99.90;;;;;;4418766;32;20680;-67
2021/12/06 06:31:10;;;;;;;1.80;1.65;;;1.80;99.90;;;;;;4406645;32;20078;-66
2021/12/06 06:33:36;;;;;;;10.57;3.72;;;1.80;99.90;;;;;;4416451;32;20110;-67
2021/12/06 06:36:03;;;;;;;2.10;1.90;;;1.90;99.90;;;;;;4415763;32;20080;-67
2021/12/06 06:38:29;;;;;;;4.62;2.47;;;1.90;99.90;;;;;;4417140;32;20494;-67
2021/12/06 06:40:55;;;;;;;2.42;2.12;;;1.90;99.90;;;;;;4421066;32;20082;-67
2021/12/06 06:43:20;;;;;;;5.55;2.40;;;1.90;99.90;;;;;;4415745;32;20573;-67
2021/12/06 06:45:46;;;;;;;1.00;0.95;;;2.00;99.90;;;;;;4418814;32;20192;-68
2021/12/06 06:48:12;;;;;;;0.73;0.57;;;2.00;99.90;;;;;;4421660;32;20609;-68
2021/12/06 06:50:38;;;;;;;1.23;1.17;;;2.00;99.90;;;;;;4409534;32;20088;-67
2021/12/06 06:53:05;;;;;;;5.70;2.67;;;2.10;99.90;;;;;;4414311;32;20538;-68
2021/12/06 06:55:31;;;;;;;2.37;1.98;;;2.10;99.90;;;;;;4411662;32;20078;-68
2021/12/06 06:57:57;;;;;;;1.52;1.10;;;2.10;99.90;;;;;;4412564;32;20116;-67
2021/12/06 07:00:26;;;;;;;2.35;1.98;;;2.00;99.90;;;;;;4409835;32;20069;-68
2021/12/06 07:02:53;;;;;;;5.32;1.87;;;2.10;99.90;;;;;;4411653;32;20100;-67
2021/12/06 07:05:20;;;;;;;3.67;1.30;;;2.10;99.90;;;;;;4414690;32;20403;-68
2021/12/06 07:07:45;;;;;;;2.30;1.48;;;2.10;99.90;;;;;;4410157;32;20452;-67
2021/12/06 07:10:11;;;;;;;2.90;1.90;;;2.20;99.90;;;;;;4412493;32;20498;-68
2021/12/06 07:12:45;;;;;;;7.78;1.98;;;2.10;99.90;;;;;;4413099;32;20062;-68
2021/12/06 07:15:14;;;;;;;1.90;1.62;;;2.00;99.90;;;;;;4411375;32;20166;-66
2021/12/06 07:17:42;;;;;;;1.40;1.30;;;2.10;99.90;;;;;;4413893;32;20134;-67
2021/12/06 07:20:09;;;;;;;4.12;1.95;;;2.10;99.90;;;;;;4412471;32;21078;-67
2021/12/06 07:22:35;;;;;;;2.00;1.45;;;2.20;99.90;;;;;;4414860;32;20164;-66
2021/12/06 07:25:03;;;;;;;7.57;2.40;;;2.20;99.90;;;;;;4416485;32;20065;-67
2021/12/06 07:27:29;;;;;;;2.40;1.83;;;2.30;99.90;;;;;;4416412;32;20522;-67
2021/12/06 07:29:54;;;;;;;2.47;1.87;;;2.30;99.90;;;;;;4416602;32;20087;-66
2021/12/06 07:32:20;;;;;;;0.90;0.90;;;2.30;99.90;;;;;;4419529;32;20073;-67
2021/12/06 07:34:47;;;;;;;1.27;1.15;;;2.20;99.90;;;;;;4416559;32;20093;-66
2021/12/06 07:37:12;;;;;;;2.03;1.70;;;2.30;99.90;;;;;;4416415;32;20554;-66
2021/12/06 07:39:38;;;;;;;1.40;1.00;;;2.30;99.90;;;;;;4418069;32;20065;-66
2021/12/06 07:42:04;;;;;;;1.02;1.02;;;2.30;99.90;;;;;;4416858;32;20073;-66
2021/12/06 07:44:31;;;;;;;6.37;2.70;;;2.30;99.90;;;;;;4422228;32;20157;-66
2021/12/06 07:46:56;;;;;;;0.70;0.70;;;2.30;99.90;;;;;;4419585;32;20209;-66
2021/12/06 07:49:22;;;;;;;0.80;0.80;;;2.30;99.90;;;;;;4415127;32;20148;-66
2021/12/06 07:51:48;;;;;;;2.08;1.40;;;2.40;99.90;;;;;;4415251;32;20352;-67
2021/12/06 07:54:14;;;;;;;9.00;1.58;;;2.40;99.90;;;;;;4408752;32;20139;-67
2021/12/06 07:56:41;;;;;;;3.10;1.98;;;2.40;99.90;;;;;;4420123;32;20081;-66
2021/12/06 07:59:07;;;;;;;0.95;0.95;;;2.40;99.90;;;;;;4416341;32;20081;-67
2021/12/06 08:01:32;;;;;;;6.32;3.15;;;2.40;99.90;;;;;;4416378;32;20077;-67
2021/12/06 08:03:59;;;;;;;2.90;1.73;;;2.40;99.90;;;;;;4410208;32;20372;-66
2021/12/06 08:06:26;;;;;;;2.40;1.75;;;2.50;99.90;;;;;;4414362;32;20094;-67
2021/12/06 08:08:51;;;;;;;2.72;1.30;;;2.50;99.90;;;;;;4414653;32;20257;-67
2021/12/06 08:11:19;;;;;;;4.37;1.75;;;2.60;99.90;;;;;;4413260;32;20131;-67
2021/12/06 08:13:50;;;;;;;2.25;1.70;;;2.50;99.90;;;;;;4412852;32;20127;-66
2021/12/06 08:16:20;;;;;;;1.30;1.25;;;2.50;99.90;;;;;;4412595;32;20152;-67
2021/12/06 08:18:46;;;;;;;0.90;0.90;;;2.50;99.90;;;;;;4410929;32;20542;-67
2021/12/06 08:21:14;;;;;;;2.67;1.70;;;2.60;99.90;;;;;;4413904;32;20818;-66
2021/12/06 08:23:41;;;;;;;0.82;0.82;;;2.50;99.90;;;;;;4413672;32;20093;-66
2021/12/06 08:26:08;;;;;;;3.35;1.23;;;2.60;99.90;;;;;;4413070;32;20280;-67
2021/12/06 08:28:35;;;;;;;1.87;1.73;;;2.60;99.90;;;;;;4408447;32;20181;-66
2021/12/06 08:31:03;;;;;;;11.50;3.33;;;2.50;99.90;;;;;;4408716;32;20185;-66
2021/12/06 08:33:29;;;;;;;8.05;2.85;;;2.70;99.90;;;;;;4401668;32;20123;-66
2021/12/06 08:35:55;;;;;;;0.65;0.65;;;2.70;99.90;;;;;;4407789;32;20089;-66
2021/12/06 08:38:24;;;;;;;2.10;1.62;;;2.80;99.90;;;;;;4406977;32;20513;-66
2021/12/06 08:40:51;;;;;;;3.80;1.30;;;2.80;99.90;;;;;;4410592;32;20094;-65
2021/12/06 08:43:19;;;;;;;1.65;1.55;;;2.90;99.90;;;;;;4412227;32;20085;-67
2021/12/06 08:45:49;;;;;;;5.93;3.00;;;2.90;99.90;;;;;;4410989;32;20101;-66
2021/12/06 08:48:15;;;;;;;1.42;1.33;;;3.00;99.90;;;;;;4405689;32;20093;-67
2021/12/06 08:50:41;;;;;;;1.35;1.25;;;3.00;99.90;;;;;;4400966;32;20581;-66
2021/12/06 08:53:07;;;;;;;0.80;0.80;;;3.00;99.90;;;;;;4401252;32;21893;-67
2021/12/06 08:55:32;;;;;;;5.65;2.45;;;3.00;99.90;;;;;;4392531;32;20132;-68
2021/12/06 08:57:58;;;;;;;0.88;0.88;;;3.10;99.90;;;;;;4405097;32;20451;-68
2021/12/06 09:00:30;;;;;;;4.62;2.22;;;3.10;99.90;;;;;;4393119;32;20100;-68
2021/12/06 09:02:56;;;;;;;1.35;1.25;;;3.10;99.90;;;;;;4398186;32;20924;-68
2021/12/06 09:05:25;;;;;;;0.93;0.93;;;3.10;99.90;;;;;;4395086;32;20181;-68
2021/12/06 09:07:51;;;;;;;14.60;2.22;;;3.20;99.90;;;;;;4403139;32;20181;-68
2021/12/06 09:10:17;;;;;;;1.70;1.50;;;3.20;99.90;;;;;;4406825;32;20098;-67
2021/12/06 09:12:44;;;;;;;2.12;1.73;;;3.20;99.90;;;;;;4399139;32;20109;-68
2021/12/06 09:15:13;;;;;;;1.35;1.25;;;3.20;99.90;;;;;;4405363;32;20148;-67
2021/12/06 09:17:40;;;;;;;1.23;1.00;;;3.20;99.90;;;;;;4403324;32;20092;-67
2021/12/06 09:20:08;;;;;;;0.70;0.70;;;3.20;99.90;;;;;;4401355;32;20092;-67
2021/12/06 09:22:34;;;;;;;0.93;0.93;;;3.20;99.90;;;;;;4403509;32;20773;-67
2021/12/06 09:24:59;;;;;;;3.20;1.90;;;3.20;99.90;;;;;;4402987;32;20093;-66
2021/12/06 09:27:25;;;;;;;0.80;0.80;;;3.20;99.90;;;;;;4398703;32;20085;-68
2021/12/06 09:29:51;;;;;;;6.78;2.78;;;3.20;99.90;;;;;;4404624;32;20148;-68
2021/12/06 09:32:17;;;;;;;0.90;0.90;;;3.30;99.90;;;;;;4404582;32;20577;-67
2021/12/06 09:34:46;;;;;;;0.80;0.80;;;3.30;99.90;;;;;;4404837;32;20089;-69
2021/12/06 09:37:12;;;;;;;3.75;1.37;;;3.30;99.90;;;;;;4402738;32;20100;-67
2021/12/06 09:39:39;;;;;;;1.52;1.37;;;3.40;99.90;;;;;;4404031;32;20152;-69
2021/12/06 09:42:05;;;;;;;4.60;2.03;;;3.50;99.90;;;;;;4405352;32;20102;-69
2021/12/06 09:44:31;;;;;;;2.00;1.50;;;3.50;99.90;;;;;;4407741;32;20135;-68
2021/12/06 09:46:57;;;;;;;1.50;1.40;;;3.50;99.90;;;;;;4404419;32;20077;-68
2021/12/06 09:49:24;;;;;;;1.12;1.10;;;3.50;99.90;;;;;;4402231;32;20125;-67
2021/12/06 09:51:56;;;;;;;1.33;0.90;;;3.40;99.90;;;;;;4378755;32;20105;-67
2021/12/06 09:54:25;;;;;;;0.70;0.70;;;3.60;99.90;;;;;;4397619;32;20683;-67
2021/12/06 09:56:52;;;;;;;3.47;1.37;;;3.50;99.90;;;;;;4396075;32;20410;-68
2021/12/06 09:59:20;;;;;;;1.60;1.23;;;3.60;99.90;;;;;;4391545;32;20109;-68
2021/12/06 10:01:51;;;;;;;1.83;1.73;;;3.60;99.90;;;;;;4395211;32;20093;-69
2021/12/06 10:04:20;;;;;;;3.35;2.30;;;3.80;99.90;;;;;;4392244;32;20509;-68
2021/12/06 10:06:48;;;;;;;2.08;1.65;;;3.90;99.90;;;;;;4399444;32;20639;-68
2021/12/06 10:09:16;;;;;;;0.70;0.70;;;3.90;99.90;;;;;;4393376;32;20529;-68
2021/12/06 10:11:42;;;;;;;11.43;0.80;;;3.90;99.90;;;;;;4397933;32;20416;-68
2021/12/06 10:14:08;;;;;;;1.02;1.02;;;4.00;99.90;;;;;;4401934;32;20144;-68
2021/12/06 10:16:36;;;;;;;1.67;1.15;;;4.00;99.90;;;;;;4404061;32;20665;-69
2021/12/06 10:19:05;;;;;;;1.20;1.00;;;3.90;99.90;;;;;;4389501;32;20097;-66
2021/12/06 10:21:32;;;;;;;0.57;0.57;;;4.00;99.90;;;;;;4386651;32;20812;-64
2021/12/06 10:23:59;;;;;;;0.77;0.77;;;4.00;99.90;;;;;;4401578;32;20086;-63
2021/12/06 10:26:29;;;;;;;2.60;1.73;;;4.00;99.90;;;;;;4389792;32;20089;-63
2021/12/06 10:28:58;;;;;;;5.60;2.17;;;4.10;99.90;;;;;;4400994;32;20220;-64
2021/12/06 10:31:26;;;;;;;0.73;0.73;;;4.10;99.90;;;;;;4400542;32;20147;-65
2021/12/06 10:33:54;;;;;;;1.87;1.77;;;4.10;99.90;;;;;;4405322;32;20155;-65
2021/12/06 10:36:20;;;;;;;1.23;1.12;;;4.10;99.90;;;;;;4405454;32;20109;-65
2021/12/06 10:38:53;;;;;;;1.77;1.42;;;4.10;99.90;;;;;;4398761;32;20923;-64
2021/12/06 10:41:22;;;;;;;0.93;0.93;;;4.10;99.90;;;;;;4390492;32;20484;-65
2021/12/06 10:44:09;;;;;;;3.17;1.83;;;4.10;99.90;;;;;;4401759;32;20829;-64
2021/12/06 10:46:34;;;;;;;1.15;1.12;;;4.10;99.90;;;;;;4402566;32;20123;-65
2021/12/06 10:49:04;;;;;;;10.15;3.20;;;4.10;99.90;;;;;;4411065;32;20135;-64
2021/12/06 10:51:31;;;;;;;1.33;1.23;;;4.10;99.90;;;;;;4390660;32;20423;-65
2021/12/06 10:54:03;;;;;;;1.58;1.48;;;4.00;99.90;;;;;;4401939;32;20093;-65
2021/12/06 10:56:40;;;;;;;1.42;1.15;;;4.00;99.90;;;;;;4395426;32;20121;-65
2021/12/06 10:59:14;;;;;;;1.05;1.05;;;4.00;99.90;;;;;;4385187;32;21934;-65
2021/12/06 11:01:39;;;;;;;0.60;0.60;;;3.80;99.90;;;;;;4397902;32;20536;-65
2021/12/06 11:04:08;;;;;;;1.10;1.10;;;3.90;99.90;;;;;;4399608;32;20118;-64
2021/12/06 11:06:42;;;;;;;3.28;1.15;;;3.80;99.90;;;;;;4397854;32;20749;-64
2021/12/06 11:09:11;;;;;;;1.30;1.20;;;3.80;99.90;;;;;;4396114;32;20093;-63
2021/12/06 11:11:40;;;;;;;1.12;1.02;;;3.70;99.90;;;;;;4376731;32;20097;-64
2021/12/06 11:14:10;;;;;;;2.05;1.55;;;3.70;99.90;;;;;;4405129;32;20780;-65
2021/12/06 11:16:39;;;;;;;0.88;0.88;;;3.70;99.90;;;;;;4395029;32;20074;-64
2021/12/06 11:19:11;;;;;;;1.60;1.45;;;3.80;99.90;;;;;;4388856;32;20097;-65
2021/12/06 11:21:43;;;;;;;39.40;2.03;;;3.80;99.90;;;;;;4408371;32;20089;-65
2021/12/06 11:24:13;;;;;;;1.30;1.20;;;3.90;99.90;;;;;;4410240;32;20219;-64
2021/12/06 11:26:45;;;;;;;2.03;1.60;;;3.90;99.90;;;;;;4411571;32;20082;-65
2021/12/06 11:29:22;;;;;;;1.35;1.25;;;3.70;99.90;;;;;;4396145;32;20097;-67
2021/12/06 11:32:10;;;;;;;1.40;0.80;;;3.80;99.90;;;;;;4413388;32;20065;-65
2021/12/06 11:34:42;;;;;;;0.90;0.90;;;3.70;99.90;;;;;;4401886;32;20318;-66
2021/12/06 11:37:14;;;;;;;0.85;0.85;;;3.70;99.90;;;;;;4406023;32;20098;-65
2021/12/06 11:39:39;;;;;;;0.43;0.43;;;3.70;99.90;;;;;;4407902;32;20105;-65
2021/12/06 11:42:05;;;;;;;1.37;1.25;;;3.70;99.90;;;;;;4409580;32;20595;-66
2021/12/06 11:44:34;;;;;;;2.25;1.08;;;3.80;99.90;;;;;;4409316;32;20130;-66
2021/12/06 11:47:07;;;;;;;1.40;1.30;;;3.90;99.90;;;;;;4411265;32;20089;-65
2021/12/06 11:49:37;;;;;;;2.35;1.45;;;3.90;99.90;;;;;;4408496;32;20088;-65
2021/12/06 11:52:05;;;;;;;2.12;1.52;;;3.80;99.90;;;;;;4406306;32;20082;-66
2021/12/06 11:54:36;;;;;;;5.28;1.25;;;3.80;99.90;;;;;;4405335;32;20118;-67
2021/12/06 11:57:10;;;;;;;0.62;0.62;;;3.80;99.90;;;;;;4395887;32;20734;-67
2021/12/06 11:59:46;;;;;;;0.70;0.70;;;3.80;99.90;;;;;;4399545;32;20266;-65
2021/12/06 12:02:11;;;;;;;1.45;1.12;;;3.80;99.90;;;;;;4399690;32;20102;-66
2021/12/06 12:04:37;;;;;;;0.68;0.68;;;3.90;99.90;;;;;;4400262;32;20101;-65
2021/12/06 12:07:05;;;;;;;1.45;1.35;;;3.80;99.90;;;;;;4402938;32;20157;-65
2021/12/06 12:09:33;;;;;;;1.00;0.98;;;3.70;99.90;;;;;;4400938;32;21865;-65
2021/12/06 12:12:03;;;;;;;1.08;1.00;;;3.70;99.90;;;;;;4404178;32;20085;-65
2021/12/06 12:14:34;;;;;;;4.68;2.37;;;3.80;99.90;;;;;;4409386;32;20113;-66
2021/12/06 12:17:04;;;;;;;0.70;0.70;;;3.80;99.90;;;;;;4399587;32;20765;-66
2021/12/06 12:19:30;;;;;;;1.05;1.00;;;3.70;99.90;;;;;;4406574;32;20118;-65
2021/12/06 12:21:55;;;;;;;1.02;1.00;;;3.70;99.90;;;;;;4401268;32;20104;-66
2021/12/06 12:24:21;;;;;;;4.12;1.20;;;3.70;99.90;;;;;;4412342;32;20093;-64
2021/12/06 12:26:56;;;;;;;2.55;1.25;;;3.70;99.90;;;;;;4409252;32;20062;-63
2021/12/06 12:29:26;;;;;;;1.75;1.65;;;3.80;99.90;;;;;;4408764;32;20120;-65
2021/12/06 12:31:59;;;;;;;1.48;1.37;;;3.70;99.90;;;;;;4410526;32;20081;-65
2021/12/06 12:34:27;;;;;;;3.08;1.37;;;3.60;99.90;;;;;;4412362;32;20106;-66
2021/12/06 12:36:53;;;;;;;0.57;0.57;;;3.60;99.90;;;;;;4409643;32;20572;-65
2021/12/06 12:39:20;;;;;;;1.37;1.27;;;3.60;99.90;;;;;;4405167;32;20150;-65
2021/12/06 12:41:58;;;;;;;5.05;2.35;;;3.60;99.90;;;;;;4405190;32;20085;-65
2021/12/06 12:44:38;;;;;;;1.65;1.15;;;3.60;99.90;;;;;;4400687;32;20525;-66
2021/12/06 12:47:16;;;;;;;1.90;1.50;;;3.60;99.90;;;;;;4396581;32;20510;-66
2021/12/06 12:49:47;;;;;;;1.55;1.37;;;3.70;99.90;;;;;;4404677;32;20081;-67
2021/12/06 12:52:13;;;;;;;1.17;1.10;;;3.60;99.90;;;;;;4390818;32;20821;-66
2021/12/06 12:54:43;;;;;;;3.20;2.03;;;3.70;99.90;;;;;;4407682;32;20169;-66
2021/12/06 12:57:13;;;;;;;2.22;1.37;;;3.70;99.90;;;;;;4414951;32;20142;-66
2021/12/06 12:59:57;;;;;;;1.48;1.37;;;3.80;99.90;;;;;;4400475;32;20416;-66
2021/12/06 13:02:34;;;;;;;0.77;0.77;;;3.90;99.90;;;;;;4408612;32;20564;-67
2021/12/06 13:05:07;;;;;;;0.85;0.85;;;3.90;99.90;;;;;;4409049;32;20093;-65
2021/12/06 13:07:36;;;;;;;2.35;1.15;;;3.70;99.90;;;;;;4411607;32;20185;-66
2021/12/06 13:10:23;;;;;;;0.80;0.80;;;3.70;99.90;;;;;;4410155;32;20123;-67